< < Back
Terminal Aerodrome Forecast


Current Version              Previous Versions:   1  2  3  4  5  6  7  8  9  

Terminal Aerodrome Forecast

352
FTUS42 KGSP 261130
TAFCLT
TAF
KCLT 261130Z 2612/2712 19005KT P6SM FEW008 SCT012 OVC035
      TEMPO 2612/2616 BKN012 OVC035
     FM261600 19008KT P6SM BKN050
     FM270300 16009KT P6SM OVC060 PROB30 2703/2707 4SM TSRA OVC040CB
     FM270700 18008KT P6SM VCSH OVC020
     FM270900 19005KT P6SM OVC008=



Latest METAR

502
SAUS70 KWBC 261300
MTRCLT
METAR KCLT 261252Z 19006KT 10SM SCT010 BKN070 BKN250 23/18 A3031 RMK AO2
SLP256 T02330183


USA.gov is the U.S. government's official web portal to all federal, state and local government web resources and services.